You are listening to:
EHAM Tower (18C/36C-27/09) - Amsterdam, Netherlands

EHAM 060725Z 29007KT 250V360 9999 FEW030 17/10 Q1026 NOSIG

If stream doesn't start automatically press the play button
If stream stops then reload player then press play